createdAt,value
2022-10-25T00:00:50.080Z,6.70
2022-10-25T00:03:37.710Z,5.53
2022-10-25T00:06:25.450Z,6.13
2022-10-25T00:09:12.774Z,7.57
2022-10-25T00:12:00.261Z,4.35
2022-10-25T00:14:47.699Z,5.80
2022-10-25T00:17:36.429Z,7.53
2022-10-25T00:20:23.948Z,6.88
2022-10-25T00:23:11.271Z,5.18
2022-10-25T00:26:03.013Z,10.80
2022-10-25T00:28:50.391Z,4.43
2022-10-25T00:31:40.099Z,4.45
2022-10-25T00:34:28.692Z,6.65
2022-10-25T00:37:16.352Z,5.30
2022-10-25T00:40:04.587Z,6.00
2022-10-25T00:42:53.099Z,6.70
2022-10-25T00:45:40.799Z,6.75
2022-10-25T00:48:29.160Z,4.95
2022-10-25T00:51:18.191Z,6.53
2022-10-25T00:54:06.308Z,4.97
2022-10-25T00:56:55.606Z,7.33
2022-10-25T00:59:43.896Z,6.35
2022-10-25T01:02:32.006Z,5.80
2022-10-25T01:05:20.139Z,5.90
2022-10-25T01:08:09.336Z,7.93
2022-10-25T01:10:57.003Z,5.60
2022-10-25T01:13:44.518Z,6.07
2022-10-25T01:16:39.678Z,7.75
2022-10-25T01:19:44.181Z,5.05
2022-10-25T01:22:39.813Z,10.55
2022-10-25T01:25:56.602Z,12.03
2022-10-25T01:29:02.114Z,6.63
2022-10-25T01:31:55.230Z,6.40
2022-10-25T01:34:48.075Z,7.60
2022-10-25T01:37:41.636Z,6.68
2022-10-25T01:40:35.100Z,4.60
2022-10-25T01:43:32.884Z,6.75
2022-10-25T01:46:25.846Z,6.82
2022-10-25T01:49:22.659Z,6.95
2022-10-25T01:52:10.636Z,6.78
2022-10-25T01:54:58.211Z,6.10
2022-10-25T01:58:06.069Z,5.85
2022-10-25T02:01:00.806Z,5.20
2022-10-25T02:03:57.259Z,6.53
2022-10-25T02:06:56.618Z,7.45
2022-10-25T02:09:54.323Z,6.17
2022-10-25T02:12:50.571Z,5.95
2022-10-25T02:15:41.552Z,7.00
2022-10-25T02:21:27.640Z,6.70
2022-10-25T02:24:21.145Z,7.60
2022-10-25T02:27:11.778Z,8.25
2022-10-25T02:30:00.231Z,8.77
2022-10-25T02:32:47.930Z,8.57
2022-10-25T02:35:35.120Z,7.85
2022-10-25T02:38:22.493Z,8.00
2022-10-25T02:41:11.799Z,7.20
2022-10-25T02:43:59.125Z,7.32
2022-10-25T02:46:46.485Z,7.78
2022-10-25T02:49:33.748Z,7.40
2022-10-25T02:52:21.032Z,6.77
2022-10-25T02:55:09.146Z,8.38
2022-10-25T02:57:57.604Z,9.20
2022-10-25T03:00:45.267Z,7.75
2022-10-25T03:03:33.007Z,8.85
2022-10-25T03:06:20.265Z,5.47
2022-10-25T03:09:07.320Z,6.78
2022-10-25T03:11:54.990Z,5.07
2022-10-25T03:14:43.853Z,7.38
2022-10-25T03:17:31.351Z,6.72
2022-10-25T03:20:18.713Z,6.17
2022-10-25T03:23:06.333Z,11.15
2022-10-25T03:25:54.575Z,9.38
2022-10-25T03:28:41.854Z,8.55
2022-10-25T03:31:30.818Z,9.25
2022-10-25T03:34:18.656Z,6.67
2022-10-25T03:37:06.171Z,13.80
2022-10-25T03:39:54.338Z,9.68
2022-10-25T03:42:41.409Z,7.70
2022-10-25T03:45:29.329Z,6.97
2022-10-25T03:48:17.822Z,7.53
2022-10-25T03:51:05.316Z,8.27
2022-10-25T03:53:52.750Z,9.68
2022-10-25T03:56:40.078Z,10.65
2022-10-25T03:59:27.887Z,10.68
2022-10-25T04:02:16.209Z,8.93
2022-10-25T04:05:05.085Z,12.65
2022-10-25T04:07:52.323Z,7.47
2022-10-25T04:10:39.528Z,9.52
2022-10-25T04:13:26.998Z,8.65
2022-10-25T04:16:18.311Z,6.73
2022-10-25T04:19:06.975Z,7.25
2022-10-25T04:21:55.650Z,7.50
2022-10-25T04:24:43.356Z,8.05
2022-10-25T04:27:30.721Z,7.10
2022-10-25T04:30:18.365Z,9.73
2022-10-25T04:33:06.045Z,7.75
2022-10-25T04:35:57.591Z,7.18
2022-10-25T04:38:49.224Z,7.47
2022-10-25T04:41:36.499Z,7.68
2022-10-25T04:44:23.808Z,8.60
2022-10-25T04:47:11.228Z,8.23
2022-10-25T04:49:58.495Z,7.90
2022-10-25T04:52:46.234Z,9.57
2022-10-25T04:55:35.744Z,7.30
2022-10-25T04:58:27.418Z,9.60
2022-10-25T05:01:19.209Z,7.00
2022-10-25T05:04:06.723Z,7.05
2022-10-25T05:06:54.168Z,6.57
2022-10-25T05:09:43.909Z,8.50
2022-10-25T05:12:36.219Z,7.40
2022-10-25T05:15:23.727Z,7.90
2022-10-25T05:18:10.913Z,8.13
2022-10-25T05:21:00.945Z,10.00
2022-10-25T05:23:48.305Z,8.65
2022-10-25T05:26:36.940Z,9.00
2022-10-25T05:29:25.692Z,8.73
2022-10-25T05:32:12.984Z,11.23
2022-10-25T05:35:00.769Z,11.07
2022-10-25T05:37:49.094Z,8.60
2022-10-25T05:40:36.199Z,7.40
2022-10-25T05:43:23.539Z,6.68
2022-10-25T05:46:15.631Z,10.07
2022-10-25T05:49:03.508Z,8.07
2022-10-25T05:51:50.728Z,7.18
2022-10-25T05:54:38.266Z,6.87
2022-10-25T05:57:25.580Z,8.38
2022-10-25T06:00:14.436Z,6.32
2022-10-25T06:03:03.990Z,11.43
2022-10-25T06:05:51.006Z,9.57
2022-10-25T06:08:39.435Z,11.90
2022-10-25T06:11:28.792Z,8.63
2022-10-25T06:14:16.198Z,8.68
2022-10-25T06:17:03.802Z,15.65
2022-10-25T06:19:52.671Z,10.40
2022-10-25T06:22:40.188Z,10.53
2022-10-25T06:25:27.619Z,10.00
2022-10-25T06:28:14.982Z,8.38
2022-10-25T06:31:03.145Z,10.05
2022-10-25T06:33:50.416Z,11.52
2022-10-25T06:36:39.229Z,10.10
2022-10-25T06:39:26.562Z,11.25
2022-10-25T06:42:13.930Z,8.57
2022-10-25T06:45:01.539Z,9.90
2022-10-25T06:47:48.898Z,9.07
2022-10-25T06:50:36.524Z,11.00
2022-10-25T06:53:25.700Z,10.57
2022-10-25T06:56:14.932Z,10.55
2022-10-25T06:59:02.774Z,9.93
2022-10-25T07:01:50.284Z,9.90
2022-10-25T07:04:37.709Z,8.30
2022-10-25T07:07:24.781Z,9.70
2022-10-25T07:10:13.562Z,8.05
2022-10-25T07:13:01.376Z,11.15
2022-10-25T07:15:48.614Z,10.13
2022-10-25T07:18:37.436Z,9.00
2022-10-25T07:21:24.959Z,8.45
2022-10-25T07:24:12.418Z,8.60
2022-10-25T07:27:01.551Z,7.97
2022-10-25T07:29:49.529Z,9.40
2022-10-25T07:32:41.487Z,9.27
2022-10-25T07:35:35.497Z,9.32
2022-10-25T07:38:29.720Z,8.50
2022-10-25T07:41:17.377Z,9.63
2022-10-25T07:44:06.316Z,8.85
2022-10-25T07:46:55.702Z,7.43
2022-10-25T07:49:43.496Z,7.95
2022-10-25T07:52:30.699Z,10.27
2022-10-25T07:55:18.290Z,7.60
2022-10-25T07:58:07.142Z,6.55
2022-10-25T08:01:02.187Z,8.03
2022-10-25T08:03:49.980Z,8.63
2022-10-25T08:06:37.329Z,10.18
2022-10-25T08:09:37.827Z,7.20
2022-10-25T08:12:26.068Z,9.07
2022-10-25T08:15:14.235Z,8.20
2022-10-25T08:18:04.531Z,10.70
2022-10-25T08:21:07.490Z,9.70
2022-10-25T08:23:55.319Z,12.18
2022-10-25T08:26:42.917Z,8.90
2022-10-25T08:29:29.898Z,7.60
2022-10-25T08:32:17.948Z,10.00
2022-10-25T08:35:07.428Z,8.25
2022-10-25T08:37:55.215Z,6.88
2022-10-25T08:40:52.564Z,7.05
2022-10-25T08:44:03.240Z,10.63
2022-10-25T08:46:57.385Z,10.23
2022-10-25T08:49:54.173Z,9.32
2022-10-25T08:52:47.114Z,10.02
2022-10-25T08:55:41.651Z,9.25
2022-10-25T08:58:47.596Z,9.37
2022-10-25T09:01:40.340Z,10.07
2022-10-25T09:04:30.445Z,6.13
2022-10-25T09:07:40.596Z,7.35
2022-10-25T09:10:53.898Z,9.90
2022-10-25T09:13:50.938Z,7.37
2022-10-25T09:16:48.245Z,9.10
2022-10-25T09:19:40.134Z,8.30
2022-10-25T09:22:29.818Z,9.52
2022-10-25T09:25:24.197Z,9.48
2022-10-25T09:28:18.915Z,10.60
2022-10-25T09:31:11.642Z,10.57
2022-10-25T09:34:04.703Z,8.68
2022-10-25T09:36:58.382Z,9.00
2022-10-25T09:39:50.308Z,9.32
2022-10-25T09:42:42.411Z,10.10
2022-10-25T09:45:38.517Z,9.27
2022-10-25T09:48:32.828Z,10.77
2022-10-25T09:51:25.630Z,9.63
2022-10-25T09:54:20.112Z,13.75
2022-10-25T09:57:07.745Z,9.63
2022-10-25T09:59:54.980Z,10.27
2022-10-25T10:02:43.612Z,9.63
2022-10-25T10:05:32.329Z,12.60
2022-10-25T10:08:19.845Z,8.98
2022-10-25T10:11:15.416Z,11.20
2022-10-25T10:14:10.052Z,10.73
2022-10-25T10:16:59.146Z,8.70
2022-10-25T10:20:09.265Z,16.10
2022-10-25T10:22:56.681Z,8.68
2022-10-25T10:25:46.969Z,11.53
2022-10-25T10:28:34.439Z,7.10
2022-10-25T10:31:22.060Z,8.35
2022-10-25T10:34:28.707Z,9.80
2022-10-25T10:37:21.701Z,7.88
2022-10-25T10:40:25.917Z,9.00
2022-10-25T10:43:24.651Z,9.25
2022-10-25T10:46:16.477Z,7.93
2022-10-25T10:49:04.987Z,8.02
2022-10-25T10:51:52.732Z,7.72
2022-10-25T10:54:50.617Z,7.90
2022-10-25T10:57:38.486Z,7.50
2022-10-25T11:00:29.077Z,7.55
2022-10-25T11:03:38.215Z,8.13
2022-10-25T11:06:28.060Z,5.55
2022-10-25T11:09:19.492Z,6.43
2022-10-25T11:12:12.224Z,9.93
2022-10-25T11:14:59.821Z,6.63
2022-10-25T11:17:53.751Z,6.40
2022-10-25T11:20:49.881Z,8.20
2022-10-25T11:23:47.686Z,7.87
2022-10-25T11:26:46.929Z,10.35
2022-10-25T11:30:05.555Z,7.63
2022-10-25T11:33:21.558Z,6.88
2022-10-25T11:36:21.620Z,6.00
2022-10-25T11:39:23.153Z,6.87
2022-10-25T11:42:29.572Z,8.43
2022-10-25T11:45:27.712Z,10.23
2022-10-25T11:48:40.454Z,7.00
2022-10-25T11:51:37.778Z,9.73
2022-10-25T11:54:34.957Z,7.77
2022-10-25T11:57:33.753Z,9.70
2022-10-25T12:00:24.712Z,10.43
2022-10-25T12:03:26.721Z,9.45
2022-10-25T12:06:23.201Z,12.07
2022-10-25T12:09:23.011Z,9.27
2022-10-25T12:12:14.068Z,10.85
2022-10-25T12:15:03.906Z,10.10
2022-10-25T12:17:53.874Z,9.13
2022-10-25T12:20:43.080Z,8.63
2022-10-25T12:23:33.504Z,7.13
2022-10-25T12:26:26.939Z,8.10
2022-10-25T12:29:19.093Z,7.30
2022-10-25T12:32:15.971Z,6.72
2022-10-25T12:35:08.244Z,6.00
2022-10-25T12:37:59.037Z,6.73
2022-10-25T12:40:49.959Z,10.32
2022-10-25T12:43:44.866Z,9.63
2022-10-25T12:46:57.381Z,9.43
2022-10-25T12:50:27.907Z,9.02
2022-10-25T12:53:42.277Z,7.17
2022-10-25T12:56:45.998Z,6.78
2022-10-25T12:59:52.893Z,6.53
2022-10-25T13:02:59.567Z,6.18
2022-10-25T13:06:22.730Z,5.85
2022-10-25T13:09:12.798Z,6.67
2022-10-25T13:12:02.668Z,5.10
2022-10-25T13:14:52.850Z,6.78
2022-10-25T13:18:00.823Z,6.47
2022-10-25T13:20:50.388Z,7.18
2022-10-25T13:24:03.733Z,7.27
2022-10-25T13:27:20.033Z,8.20
2022-10-25T13:30:31.951Z,7.60
2022-10-25T13:33:33.760Z,9.45
2022-10-25T13:36:48.349Z,6.13
2022-10-25T13:39:43.700Z,6.73
2022-10-25T13:42:34.808Z,6.63
2022-10-25T13:45:30.033Z,6.90
2022-10-25T13:48:30.740Z,6.22
2022-10-25T13:51:21.442Z,8.38
2022-10-25T13:54:13.417Z,9.70
2022-10-25T13:57:02.438Z,6.28
2022-10-25T14:00:03.063Z,7.20
2022-10-25T14:03:23.130Z,6.80
2022-10-25T14:06:17.536Z,8.55
2022-10-25T14:09:17.052Z,8.27
2022-10-25T14:12:15.578Z,7.45
2022-10-25T14:15:08.676Z,6.30
2022-10-25T14:17:58.604Z,8.00
2022-10-25T14:20:48.335Z,5.20
2022-10-25T14:23:37.159Z,7.83
2022-10-25T14:26:25.983Z,7.07
2022-10-25T14:29:16.400Z,8.77
2022-10-25T14:32:13.697Z,8.20
2022-10-25T14:35:00.930Z,6.75
2022-10-25T14:37:48.332Z,7.27
2022-10-25T14:40:35.554Z,9.07
2022-10-25T14:43:26.761Z,5.78
2022-10-25T14:46:17.540Z,5.82
2022-10-25T14:49:04.995Z,8.13
2022-10-25T14:51:56.459Z,9.20
2022-10-25T14:54:47.578Z,8.43
2022-10-25T14:57:36.347Z,7.47
2022-10-25T15:00:25.424Z,7.78
2022-10-25T15:03:15.228Z,6.72
2022-10-25T15:06:04.072Z,5.37
2022-10-25T15:09:14.897Z,7.63
2022-10-25T15:12:07.592Z,8.90
2022-10-25T15:14:55.923Z,7.85
2022-10-25T15:17:51.517Z,9.65
2022-10-25T15:20:40.384Z,9.97
2022-10-25T15:23:27.706Z,7.13
2022-10-25T15:26:23.776Z,9.77
2022-10-25T15:29:11.187Z,10.23
2022-10-25T15:31:58.652Z,10.60
2022-10-25T15:34:47.865Z,8.13
2022-10-25T15:37:40.429Z,9.85
2022-10-25T15:40:27.760Z,10.07
2022-10-25T15:43:15.171Z,11.48
2022-10-25T15:46:02.899Z,9.73
2022-10-25T15:48:50.731Z,9.37
2022-10-25T15:51:41.846Z,13.02
2022-10-25T15:54:30.729Z,18.05
2022-10-25T15:57:19.803Z,13.48
2022-10-25T16:00:08.751Z,10.00
2022-10-25T16:03:00.349Z,6.47
2022-10-25T16:05:49.836Z,6.70
2022-10-25T16:08:37.741Z,8.65
2022-10-25T16:11:27.514Z,9.32
2022-10-25T16:14:21.409Z,8.43
2022-10-25T16:17:10.883Z,7.63
2022-10-25T16:19:59.850Z,8.55
2022-10-25T16:22:48.582Z,8.43
2022-10-25T16:25:36.929Z,10.70
2022-10-25T16:31:17.459Z,9.73
2022-10-25T16:34:04.879Z,10.45
2022-10-25T16:36:53.019Z,12.95
2022-10-25T16:39:40.877Z,11.65
2022-10-25T16:42:30.428Z,10.27
2022-10-25T16:45:24.251Z,9.47
2022-10-25T16:48:11.755Z,9.20
2022-10-25T16:50:59.272Z,8.27
2022-10-25T16:53:48.334Z,8.63
2022-10-25T16:56:35.651Z,9.13
2022-10-25T16:59:23.070Z,9.63
2022-10-25T17:02:17.885Z,11.23
2022-10-25T17:05:05.837Z,10.27
2022-10-25T17:07:53.488Z,9.38
2022-10-25T17:10:43.766Z,9.98
2022-10-25T17:13:33.107Z,11.30
2022-10-25T17:16:20.387Z,9.48
2022-10-25T17:19:10.392Z,8.10
2022-10-25T17:21:57.896Z,9.50
2022-10-25T17:24:45.273Z,10.52
2022-10-25T17:27:32.575Z,9.33
2022-10-25T17:30:21.700Z,10.82
2022-10-25T17:33:08.912Z,8.55
2022-10-25T17:35:57.752Z,9.43
2022-10-25T17:38:45.668Z,9.30
2022-10-25T17:41:32.797Z,8.93
2022-10-25T17:44:20.389Z,8.52
2022-10-25T17:47:07.618Z,8.15
2022-10-25T17:50:00.886Z,10.50
2022-10-25T17:52:50.676Z,8.77
2022-10-25T17:55:41.089Z,9.43
2022-10-25T17:58:28.596Z,9.52
2022-10-25T18:01:18.494Z,9.07
2022-10-25T18:04:05.985Z,8.65
2022-10-25T18:06:53.450Z,12.05
2022-10-25T18:09:41.993Z,12.63
2022-10-25T18:12:30.470Z,13.95
2022-10-25T18:15:17.758Z,12.65
2022-10-25T18:18:05.632Z,11.30
2022-10-25T18:20:53.242Z,12.23
2022-10-25T18:23:41.756Z,11.20
2022-10-25T18:26:30.636Z,12.43
2022-10-25T18:29:18.068Z,14.27
2022-10-25T18:32:06.199Z,11.55
2022-10-25T18:34:53.120Z,13.18
2022-10-25T18:37:40.724Z,11.00
2022-10-25T18:40:27.799Z,10.70
2022-10-25T18:43:16.899Z,12.00
2022-10-25T18:46:04.179Z,14.30
2022-10-25T18:48:52.220Z,13.63
2022-10-25T18:51:40.601Z,14.17
2022-10-25T18:54:27.910Z,19.02
2022-10-25T18:57:15.235Z,15.50
2022-10-25T19:00:04.984Z,16.02
2022-10-25T19:02:54.200Z,14.32
2022-10-25T19:05:42.909Z,15.80
2022-10-25T19:08:30.364Z,16.85
2022-10-25T19:11:18.629Z,14.00
2022-10-25T19:14:08.163Z,13.45
2022-10-25T19:16:57.593Z,12.93
2022-10-25T19:19:47.072Z,13.50
2022-10-25T19:22:34.724Z,16.05
2022-10-25T19:25:23.897Z,14.90
2022-10-25T19:28:12.917Z,13.68
2022-10-25T19:31:08.290Z,11.95
2022-10-25T19:34:00.167Z,13.30
2022-10-25T19:36:48.261Z,12.45
2022-10-25T19:39:37.782Z,10.40
2022-10-25T19:42:26.491Z,10.95
2022-10-25T19:45:15.517Z,10.82
2022-10-25T19:48:05.138Z,13.70
2022-10-25T19:50:54.751Z,20.33
2022-10-25T19:53:43.358Z,9.85
2022-10-25T19:56:31.339Z,10.43
2022-10-25T19:59:19.021Z,9.35
2022-10-25T20:02:07.145Z,14.03
2022-10-25T20:04:54.336Z,12.73
2022-10-25T20:07:43.575Z,9.20
2022-10-25T20:10:31.552Z,9.20
2022-10-25T20:13:19.325Z,9.70
2022-10-25T20:16:07.910Z,8.43
2022-10-25T20:18:56.443Z,9.52
2022-10-25T20:21:43.864Z,10.27
2022-10-25T20:24:33.091Z,8.73
2022-10-25T20:27:20.395Z,9.88
2022-10-25T20:30:08.526Z,9.73
2022-10-25T20:32:55.789Z,8.43
2022-10-25T20:35:44.301Z,9.73
2022-10-25T20:38:32.362Z,9.55
2022-10-25T20:41:23.756Z,9.23
2022-10-25T20:44:11.648Z,8.87
2022-10-25T20:46:59.317Z,9.63
2022-10-25T20:49:46.338Z,10.25
2022-10-25T20:52:34.784Z,8.65
2022-10-25T20:55:22.872Z,10.40
2022-10-25T20:58:11.841Z,8.37
2022-10-25T21:00:59.128Z,10.00
2022-10-25T21:03:46.151Z,9.50
2022-10-25T21:06:33.906Z,11.50
2022-10-25T21:09:21.307Z,12.00
2022-10-25T21:12:08.479Z,14.53
2022-10-25T21:14:57.340Z,11.10
2022-10-25T21:17:49.969Z,13.90
2022-10-25T21:20:38.548Z,11.45
2022-10-25T21:23:26.150Z,13.68
2022-10-25T21:26:13.714Z,13.10
2022-10-25T21:29:00.821Z,10.32
2022-10-25T21:31:50.519Z,9.30
2022-10-25T21:34:37.836Z,12.52
2022-10-25T21:37:24.883Z,11.45
2022-10-25T21:40:12.900Z,10.27
2022-10-25T21:43:00.329Z,11.63
2022-10-25T21:45:47.999Z,10.00
2022-10-25T21:48:37.126Z,11.30
2022-10-25T21:51:25.409Z,12.35
2022-10-25T21:54:12.571Z,12.27
2022-10-25T21:56:59.638Z,11.30
2022-10-25T21:59:46.374Z,12.15
2022-10-25T22:02:33.413Z,11.40
2022-10-25T22:05:22.278Z,15.02
2022-10-25T22:08:09.586Z,10.53
2022-10-25T22:13:46.975Z,10.02
2022-10-25T22:16:35.499Z,11.18
2022-10-25T22:22:17.887Z,11.60
2022-10-25T22:25:05.488Z,10.23
2022-10-25T22:27:52.838Z,10.10
2022-10-25T22:30:40.627Z,9.82
2022-10-25T22:33:27.824Z,13.32
2022-10-25T22:36:17.148Z,9.43
2022-10-25T22:39:05.873Z,9.43
2022-10-25T22:41:54.857Z,8.57
2022-10-25T22:44:42.223Z,8.65
2022-10-25T22:47:29.760Z,10.45
2022-10-25T22:50:17.253Z,10.67
2022-10-25T22:53:04.519Z,9.95
2022-10-25T22:55:58.149Z,10.32
2022-10-25T22:58:49.956Z,7.95
2022-10-25T23:01:38.530Z,8.82
2022-10-25T23:04:25.589Z,8.63
2022-10-25T23:07:12.908Z,8.55
2022-10-25T23:10:00.258Z,8.50
2022-10-25T23:12:49.923Z,8.52
2022-10-25T23:15:37.173Z,11.20
2022-10-25T23:18:26.399Z,7.80
2022-10-25T23:21:17.247Z,7.93
2022-10-25T23:24:04.818Z,13.98
2022-10-25T23:26:52.048Z,10.38
2022-10-25T23:29:40.342Z,9.48
2022-10-25T23:32:27.720Z,9.03
2022-10-25T23:35:15.027Z,8.40
2022-10-25T23:38:02.758Z,8.40
2022-10-25T23:40:50.078Z,11.50
2022-10-25T23:43:37.594Z,8.05
2022-10-25T23:46:26.633Z,9.37
2022-10-25T23:49:14.146Z,8.00
2022-10-25T23:52:01.235Z,11.02
2022-10-25T23:54:48.737Z,8.68
2022-10-25T23:57:36.548Z,7.95
